Mount Jackson, Virginia
Current Conditions -  °F | °C
As of 1:15 PM on Tuesday 21 Oct 2014 (Local Time) from K8W2 Reporting Station
Overcast Overcast  
Wind Chill: 17°   Ceiling: 7000
Heat Index: 17°   Visibility: 10mi
Dew Point:   Wind: 5mph
Humidity: 52%   Direction: 240°WSW
Pressure: 29.84"   Gusts: NA
Location:  38.75°N, 78.64°W
Report Text: K8W2 211715Z AUTO 24004KT 10SM SCT048 BKN070 OVC090 17/07 A2984 RMK AO1 T01700071
Loading
Personal Weather Stations






























Interactive Weather Map
Tropical Storm Tracking
New forecast layout! Learn more

10-Day Weather Forecast

Advertisements
Track Severe Weather on mobile